sensor_id;sensor_type;location;lat;lon;timestamp;temperature;humidity
26336;DHT22;14047;50.936;4.654;2022-07-06T00:01:38;13.50;99.90
26336;DHT22;14047;50.936;4.654;2022-07-06T00:04:04;13.50;99.90
26336;DHT22;14047;50.936;4.654;2022-07-06T00:06:30;13.40;99.90
26336;DHT22;14047;50.936;4.654;2022-07-06T00:08:56;13.30;99.90
26336;DHT22;14047;50.936;4.654;2022-07-06T00:11:21;13.30;99.90
26336;DHT22;14047;50.936;4.654;2022-07-06T00:13:47;13.30;99.90
26336;DHT22;14047;50.936;4.654;2022-07-06T00:16:13;13.30;99.90
26336;DHT22;14047;50.936;4.654;2022-07-06T00:18:39;13.30;99.90
26336;DHT22;14047;50.936;4.654;2022-07-06T00:21:05;13.20;99.90
26336;DHT22;14047;50.936;4.654;2022-07-06T00:23:31;13.20;99.90
26336;DHT22;14047;50.936;4.654;2022-07-06T00:25:56;13.10;99.90
26336;DHT22;14047;50.936;4.654;2022-07-06T00:28:22;13.20;99.90
26336;DHT22;14047;50.936;4.654;2022-07-06T00:30:48;13.20;99.90
26336;DHT22;14047;50.936;4.654;2022-07-06T00:33:13;13.20;99.90
26336;DHT22;14047;50.936;4.654;2022-07-06T00:35:39;13.20;99.90
26336;DHT22;14047;50.936;4.654;2022-07-06T00:38:05;13.20;99.90
26336;DHT22;14047;50.936;4.654;2022-07-06T00:40:30;13.10;99.90
26336;DHT22;14047;50.936;4.654;2022-07-06T00:42:56;13.20;99.90
26336;DHT22;14047;50.936;4.654;2022-07-06T00:45:21;13.10;99.90
26336;DHT22;14047;50.936;4.654;2022-07-06T00:47:47;13.00;99.90
26336;DHT22;14047;50.936;4.654;2022-07-06T00:50:16;12.90;99.90
26336;DHT22;14047;50.936;4.654;2022-07-06T00:52:50;12.90;99.90
26336;DHT22;14047;50.936;4.654;2022-07-06T00:55:23;12.90;99.90
26336;DHT22;14047;50.936;4.654;2022-07-06T00:57:50;12.90;99.90
26336;DHT22;14047;50.936;4.654;2022-07-06T01:00:18;12.90;99.90
26336;DHT22;14047;50.936;4.654;2022-07-06T01:02:44;12.80;99.90
26336;DHT22;14047;50.936;4.654;2022-07-06T01:05:12;12.90;99.90
26336;DHT22;14047;50.936;4.654;2022-07-06T01:07:39;12.80;99.90
26336;DHT22;14047;50.936;4.654;2022-07-06T01:10:06;12.80;99.90
26336;DHT22;14047;50.936;4.654;2022-07-06T01:12:34;12.70;99.90
26336;DHT22;14047;50.936;4.654;2022-07-06T01:15:00;12.70;99.90
26336;DHT22;14047;50.936;4.654;2022-07-06T01:17:26;12.70;99.90
26336;DHT22;14047;50.936;4.654;2022-07-06T01:19:51;12.70;99.90
26336;DHT22;14047;50.936;4.654;2022-07-06T01:22:17;12.60;99.90
26336;DHT22;14047;50.936;4.654;2022-07-06T01:24:43;12.50;99.90
26336;DHT22;14047;50.936;4.654;2022-07-06T01:27:09;12.50;99.90
26336;DHT22;14047;50.936;4.654;2022-07-06T01:29:34;12.50;99.90
26336;DHT22;14047;50.936;4.654;2022-07-06T01:32:01;12.40;99.90
26336;DHT22;14047;50.936;4.654;2022-07-06T01:34:27;12.40;99.90
26336;DHT22;14047;50.936;4.654;2022-07-06T01:36:53;12.40;99.90
26336;DHT22;14047;50.936;4.654;2022-07-06T01:39:20;12.30;99.90
26336;DHT22;14047;50.936;4.654;2022-07-06T01:41:46;12.20;99.90
26336;DHT22;14047;50.936;4.654;2022-07-06T01:44:12;12.20;99.90
26336;DHT22;14047;50.936;4.654;2022-07-06T01:46:38;12.30;99.90
26336;DHT22;14047;50.936;4.654;2022-07-06T01:49:05;12.20;99.90
26336;DHT22;14047;50.936;4.654;2022-07-06T01:51:30;12.30;99.90
26336;DHT22;14047;50.936;4.654;2022-07-06T01:53:56;12.40;99.90
26336;DHT22;14047;50.936;4.654;2022-07-06T01:56:22;12.40;99.90
26336;DHT22;14047;50.936;4.654;2022-07-06T01:58:48;12.50;99.90
26336;DHT22;14047;50.936;4.654;2022-07-06T02:01:19;12.60;99.90
26336;DHT22;14047;50.936;4.654;2022-07-06T02:03:45;12.80;99.90
26336;DHT22;14047;50.936;4.654;2022-07-06T02:06:11;12.90;99.90
26336;DHT22;14047;50.936;4.654;2022-07-06T02:08:38;13.00;99.90
26336;DHT22;14047;50.936;4.654;2022-07-06T02:11:06;13.00;99.90
26336;DHT22;14047;50.936;4.654;2022-07-06T02:13:32;13.00;99.90
26336;DHT22;14047;50.936;4.654;2022-07-06T02:15:58;13.00;99.90
26336;DHT22;14047;50.936;4.654;2022-07-06T02:18:23;13.00;99.90
26336;DHT22;14047;50.936;4.654;2022-07-06T02:20:49;13.10;99.90
26336;DHT22;14047;50.936;4.654;2022-07-06T02:23:14;13.10;99.90
26336;DHT22;14047;50.936;4.654;2022-07-06T02:25:40;13.00;99.90
26336;DHT22;14047;50.936;4.654;2022-07-06T02:28:06;12.90;99.90
26336;DHT22;14047;50.936;4.654;2022-07-06T02:30:32;12.90;99.90
26336;DHT22;14047;50.936;4.654;2022-07-06T02:32:57;12.80;99.90
26336;DHT22;14047;50.936;4.654;2022-07-06T02:35:23;12.70;99.90
26336;DHT22;14047;50.936;4.654;2022-07-06T02:37:49;12.70;99.90
26336;DHT22;14047;50.936;4.654;2022-07-06T02:40:14;12.70;99.90
26336;DHT22;14047;50.936;4.654;2022-07-06T02:42:40;12.70;99.90
26336;DHT22;14047;50.936;4.654;2022-07-06T02:45:07;12.70;99.90
26336;DHT22;14047;50.936;4.654;2022-07-06T02:47:33;12.70;99.90
26336;DHT22;14047;50.936;4.654;2022-07-06T02:49:58;12.70;99.90
26336;DHT22;14047;50.936;4.654;2022-07-06T02:52:24;12.60;99.90
26336;DHT22;14047;50.936;4.654;2022-07-06T02:54:50;12.60;99.90
26336;DHT22;14047;50.936;4.654;2022-07-06T02:57:16;12.70;99.90
26336;DHT22;14047;50.936;4.654;2022-07-06T02:59:42;12.60;99.90
26336;DHT22;14047;50.936;4.654;2022-07-06T03:02:07;12.60;99.90
26336;DHT22;14047;50.936;4.654;2022-07-06T03:04:33;12.60;99.90
26336;DHT22;14047;50.936;4.654;2022-07-06T03:06:59;12.50;99.90
26336;DHT22;14047;50.936;4.654;2022-07-06T03:09:26;12.50;99.90
26336;DHT22;14047;50.936;4.654;2022-07-06T03:11:51;12.40;99.90
26336;DHT22;14047;50.936;4.654;2022-07-06T03:14:17;12.40;99.90
26336;DHT22;14047;50.936;4.654;2022-07-06T03:16:43;12.30;99.90
26336;DHT22;14047;50.936;4.654;2022-07-06T03:19:09;12.30;99.90
26336;DHT22;14047;50.936;4.654;2022-07-06T03:21:35;12.30;99.90
26336;DHT22;14047;50.936;4.654;2022-07-06T03:24:00;12.30;99.90
26336;DHT22;14047;50.936;4.654;2022-07-06T03:26:26;12.30;99.90
26336;DHT22;14047;50.936;4.654;2022-07-06T03:28:52;12.30;99.90
26336;DHT22;14047;50.936;4.654;2022-07-06T03:31:17;12.20;99.90
26336;DHT22;14047;50.936;4.654;2022-07-06T03:33:43;12.20;99.90
26336;DHT22;14047;50.936;4.654;2022-07-06T03:36:09;12.10;99.90
26336;DHT22;14047;50.936;4.654;2022-07-06T03:38:35;12.10;99.90
26336;DHT22;14047;50.936;4.654;2022-07-06T03:41:01;12.10;99.90
26336;DHT22;14047;50.936;4.654;2022-07-06T03:43:27;12.10;99.90
26336;DHT22;14047;50.936;4.654;2022-07-06T03:45:53;12.10;99.90
26336;DHT22;14047;50.936;4.654;2022-07-06T03:48:19;12.10;99.90
26336;DHT22;14047;50.936;4.654;2022-07-06T03:50:44;12.20;99.90
26336;DHT22;14047;50.936;4.654;2022-07-06T03:53:10;12.20;99.90
26336;DHT22;14047;50.936;4.654;2022-07-06T03:55:35;12.20;99.90
26336;DHT22;14047;50.936;4.654;2022-07-06T03:58:01;12.10;99.90
26336;DHT22;14047;50.936;4.654;2022-07-06T04:00:27;12.10;99.90
26336;DHT22;14047;50.936;4.654;2022-07-06T04:02:53;12.10;99.90
26336;DHT22;14047;50.936;4.654;2022-07-06T04:05:18;12.20;99.90
26336;DHT22;14047;50.936;4.654;2022-07-06T04:07:47;12.20;99.90
26336;DHT22;14047;50.936;4.654;2022-07-06T04:10:13;12.30;99.90
26336;DHT22;14047;50.936;4.654;2022-07-06T04:12:43;12.40;99.90
26336;DHT22;14047;50.936;4.654;2022-07-06T04:15:10;12.60;99.90
26336;DHT22;14047;50.936;4.654;2022-07-06T04:17:36;12.60;99.90
26336;DHT22;14047;50.936;4.654;2022-07-06T04:20:20;12.70;99.90
26336;DHT22;14047;50.936;4.654;2022-07-06T04:22:47;12.70;99.90
26336;DHT22;14047;50.936;4.654;2022-07-06T04:25:12;12.80;99.90
26336;DHT22;14047;50.936;4.654;2022-07-06T04:27:38;13.00;99.90
26336;DHT22;14047;50.936;4.654;2022-07-06T04:30:05;13.20;99.90
26336;DHT22;14047;50.936;4.654;2022-07-06T04:32:31;13.40;99.90
26336;DHT22;14047;50.936;4.654;2022-07-06T04:34:57;13.60;99.90
26336;DHT22;14047;50.936;4.654;2022-07-06T04:37:22;13.80;99.90
26336;DHT22;14047;50.936;4.654;2022-07-06T04:39:48;13.90;99.90
26336;DHT22;14047;50.936;4.654;2022-07-06T04:42:14;14.10;99.90
26336;DHT22;14047;50.936;4.654;2022-07-06T04:44:40;14.40;99.90
26336;DHT22;14047;50.936;4.654;2022-07-06T04:47:06;14.70;99.90
26336;DHT22;14047;50.936;4.654;2022-07-06T04:49:31;14.80;99.90
26336;DHT22;14047;50.936;4.654;2022-07-06T04:51:57;14.90;99.90
26336;DHT22;14047;50.936;4.654;2022-07-06T04:54:23;15.00;99.90
26336;DHT22;14047;50.936;4.654;2022-07-06T04:56:49;15.20;99.90
26336;DHT22;14047;50.936;4.654;2022-07-06T04:59:14;15.40;99.90
26336;DHT22;14047;50.936;4.654;2022-07-06T05:01:40;15.50;99.90
26336;DHT22;14047;50.936;4.654;2022-07-06T05:04:07;15.60;99.90
26336;DHT22;14047;50.936;4.654;2022-07-06T05:06:33;15.70;99.90
26336;DHT22;14047;50.936;4.654;2022-07-06T05:08:58;15.80;99.90
26336;DHT22;14047;50.936;4.654;2022-07-06T05:11:28;16.00;99.90
26336;DHT22;14047;50.936;4.654;2022-07-06T05:13:53;16.10;99.90
26336;DHT22;14047;50.936;4.654;2022-07-06T05:16:20;16.20;99.90
26336;DHT22;14047;50.936;4.654;2022-07-06T05:18:45;16.10;99.90
26336;DHT22;14047;50.936;4.654;2022-07-06T05:21:11;16.20;99.90
26336;DHT22;14047;50.936;4.654;2022-07-06T05:23:37;16.20;99.90
26336;DHT22;14047;50.936;4.654;2022-07-06T05:26:02;16.20;99.90
26336;DHT22;14047;50.936;4.654;2022-07-06T05:28:28;16.20;99.90
26336;DHT22;14047;50.936;4.654;2022-07-06T05:30:54;16.20;99.90
26336;DHT22;14047;50.936;4.654;2022-07-06T05:33:19;16.30;99.90
26336;DHT22;14047;50.936;4.654;2022-07-06T05:35:45;16.40;99.90
26336;DHT22;14047;50.936;4.654;2022-07-06T05:38:10;16.50;99.90
26336;DHT22;14047;50.936;4.654;2022-07-06T05:40:36;16.50;99.90
26336;DHT22;14047;50.936;4.654;2022-07-06T05:43:02;16.60;99.90
26336;DHT22;14047;50.936;4.654;2022-07-06T05:45:28;16.70;99.90
26336;DHT22;14047;50.936;4.654;2022-07-06T05:47:54;16.70;99.90
26336;DHT22;14047;50.936;4.654;2022-07-06T05:50:38;16.80;99.90
26336;DHT22;14047;50.936;4.654;2022-07-06T05:53:05;16.80;99.90
26336;DHT22;14047;50.936;4.654;2022-07-06T05:55:31;16.90;99.90
26336;DHT22;14047;50.936;4.654;2022-07-06T05:57:57;17.00;99.90
26336;DHT22;14047;50.936;4.654;2022-07-06T06:00:24;17.00;99.90
26336;DHT22;14047;50.936;4.654;2022-07-06T06:02:53;16.80;99.90
26336;DHT22;14047;50.936;4.654;2022-07-06T06:05:19;16.80;99.90
26336;DHT22;14047;50.936;4.654;2022-07-06T06:07:45;17.00;99.90
26336;DHT22;14047;50.936;4.654;2022-07-06T06:10:17;17.10;99.90
26336;DHT22;14047;50.936;4.654;2022-07-06T06:12:44;17.20;99.90
26336;DHT22;14047;50.936;4.654;2022-07-06T06:15:11;17.40;99.90
26336;DHT22;14047;50.936;4.654;2022-07-06T06:17:37;17.40;99.90
26336;DHT22;14047;50.936;4.654;2022-07-06T06:20:08;17.50;99.90
26336;DHT22;14047;50.936;4.654;2022-07-06T06:22:54;17.70;99.90
26336;DHT22;14047;50.936;4.654;2022-07-06T06:25:40;17.90;99.90
26336;DHT22;14047;50.936;4.654;2022-07-06T06:28:08;18.00;99.90
26336;DHT22;14047;50.936;4.654;2022-07-06T06:30:34;17.30;99.90
26336;DHT22;14047;50.936;4.654;2022-07-06T06:33:14;17.20;99.90
26336;DHT22;14047;50.936;4.654;2022-07-06T06:35:49;17.50;99.90
26336;DHT22;14047;50.936;4.654;2022-07-06T06:38:15;17.70;99.90
26336;DHT22;14047;50.936;4.654;2022-07-06T06:40:42;17.90;99.90
26336;DHT22;14047;50.936;4.654;2022-07-06T06:43:08;18.20;99.90
26336;DHT22;14047;50.936;4.654;2022-07-06T06:45:34;18.40;99.90
26336;DHT22;14047;50.936;4.654;2022-07-06T06:47:59;18.50;99.90
26336;DHT22;14047;50.936;4.654;2022-07-06T06:50:25;18.70;99.90
26336;DHT22;14047;50.936;4.654;2022-07-06T06:52:51;18.90;99.90
26336;DHT22;14047;50.936;4.654;2022-07-06T06:55:17;19.10;99.90
26336;DHT22;14047;50.936;4.654;2022-07-06T06:57:43;19.40;99.90
26336;DHT22;14047;50.936;4.654;2022-07-06T07:00:10;19.80;99.90
26336;DHT22;14047;50.936;4.654;2022-07-06T07:02:35;19.90;99.90
26336;DHT22;14047;50.936;4.654;2022-07-06T07:05:02;20.10;99.90
26336;DHT22;14047;50.936;4.654;2022-07-06T07:07:28;20.10;99.90
26336;DHT22;14047;50.936;4.654;2022-07-06T07:09:54;20.30;99.90
26336;DHT22;14047;50.936;4.654;2022-07-06T07:12:20;20.30;99.90
26336;DHT22;14047;50.936;4.654;2022-07-06T07:14:45;20.00;99.90
26336;DHT22;14047;50.936;4.654;2022-07-06T07:17:11;19.80;99.90
26336;DHT22;14047;50.936;4.654;2022-07-06T07:19:38;19.80;99.90
26336;DHT22;14047;50.936;4.654;2022-07-06T07:22:04;19.90;99.90
26336;DHT22;14047;50.936;4.654;2022-07-06T07:24:29;19.70;99.90
26336;DHT22;14047;50.936;4.654;2022-07-06T07:26:55;19.70;99.90
26336;DHT22;14047;50.936;4.654;2022-07-06T07:29:21;19.80;99.90
26336;DHT22;14047;50.936;4.654;2022-07-06T07:31:47;19.80;99.90
26336;DHT22;14047;50.936;4.654;2022-07-06T07:34:13;19.70;99.90
26336;DHT22;14047;50.936;4.654;2022-07-06T07:36:38;19.60;99.90
26336;DHT22;14047;50.936;4.654;2022-07-06T07:39:04;19.70;99.90
26336;DHT22;14047;50.936;4.654;2022-07-06T07:41:30;19.80;99.90
26336;DHT22;14047;50.936;4.654;2022-07-06T07:43:56;19.90;99.90
26336;DHT22;14047;50.936;4.654;2022-07-06T07:46:21;20.00;99.90
26336;DHT22;14047;50.936;4.654;2022-07-06T07:48:47;20.10;99.90
26336;DHT22;14047;50.936;4.654;2022-07-06T07:51:12;20.40;99.90
26336;DHT22;14047;50.936;4.654;2022-07-06T07:53:38;20.40;99.90
26336;DHT22;14047;50.936;4.654;2022-07-06T07:56:04;20.50;99.90
26336;DHT22;14047;50.936;4.654;2022-07-06T07:58:30;20.50;99.90
26336;DHT22;14047;50.936;4.654;2022-07-06T08:00:55;20.70;99.90
26336;DHT22;14047;50.936;4.654;2022-07-06T08:03:21;20.70;99.90
26336;DHT22;14047;50.936;4.654;2022-07-06T08:05:47;20.40;99.90
26336;DHT22;14047;50.936;4.654;2022-07-06T08:08:14;20.20;99.90
26336;DHT22;14047;50.936;4.654;2022-07-06T08:10:40;20.40;99.90
26336;DHT22;14047;50.936;4.654;2022-07-06T08:13:05;20.50;99.90
26336;DHT22;14047;50.936;4.654;2022-07-06T08:15:33;20.50;99.90
26336;DHT22;14047;50.936;4.654;2022-07-06T08:17:59;20.50;99.90
26336;DHT22;14047;50.936;4.654;2022-07-06T08:20:25;20.60;99.90
26336;DHT22;14047;50.936;4.654;2022-07-06T08:22:50;20.80;99.90
26336;DHT22;14047;50.936;4.654;2022-07-06T08:25:16;21.00;99.90
26336;DHT22;14047;50.936;4.654;2022-07-06T08:27:43;21.00;99.90
26336;DHT22;14047;50.936;4.654;2022-07-06T08:30:09;21.10;99.90
26336;DHT22;14047;50.936;4.654;2022-07-06T08:32:42;21.40;99.90
26336;DHT22;14047;50.936;4.654;2022-07-06T08:35:09;21.50;99.90
26336;DHT22;14047;50.936;4.654;2022-07-06T08:37:35;21.60;99.90
26336;DHT22;14047;50.936;4.654;2022-07-06T08:40:01;21.30;99.90
26336;DHT22;14047;50.936;4.654;2022-07-06T08:42:30;21.20;99.90
26336;DHT22;14047;50.936;4.654;2022-07-06T08:45:02;21.40;99.90
26336;DHT22;14047;50.936;4.654;2022-07-06T08:47:29;21.60;99.90
26336;DHT22;14047;50.936;4.654;2022-07-06T08:49:55;21.70;99.90
26336;DHT22;14047;50.936;4.654;2022-07-06T08:52:23;21.80;99.90
26336;DHT22;14047;50.936;4.654;2022-07-06T08:54:48;21.90;99.90
26336;DHT22;14047;50.936;4.654;2022-07-06T08:57:14;21.20;99.90
26336;DHT22;14047;50.936;4.654;2022-07-06T08:59:41;21.20;99.90
26336;DHT22;14047;50.936;4.654;2022-07-06T09:02:08;21.80;99.90
26336;DHT22;14047;50.936;4.654;2022-07-06T09:04:35;22.10;99.90
26336;DHT22;14047;50.936;4.654;2022-07-06T09:07:01;22.40;99.90
26336;DHT22;14047;50.936;4.654;2022-07-06T09:09:28;22.60;99.90
26336;DHT22;14047;50.936;4.654;2022-07-06T09:11:57;22.70;99.90
26336;DHT22;14047;50.936;4.654;2022-07-06T09:14:22;22.50;99.90
26336;DHT22;14047;50.936;4.654;2022-07-06T09:17:00;22.80;99.90
26336;DHT22;14047;50.936;4.654;2022-07-06T09:19:27;23.00;99.90
26336;DHT22;14047;50.936;4.654;2022-07-06T09:21:53;23.20;99.90
26336;DHT22;14047;50.936;4.654;2022-07-06T09:24:19;23.50;99.90
26336;DHT22;14047;50.936;4.654;2022-07-06T09:26:47;23.60;99.90
26336;DHT22;14047;50.936;4.654;2022-07-06T09:29:13;23.60;99.90
26336;DHT22;14047;50.936;4.654;2022-07-06T09:31:39;23.60;99.90
26336;DHT22;14047;50.936;4.654;2022-07-06T09:34:07;23.60;99.90
26336;DHT22;14047;50.936;4.654;2022-07-06T09:41:47;23.70;99.90
26336;DHT22;14047;50.936;4.654;2022-07-06T09:44:15;23.60;99.90
26336;DHT22;14047;50.936;4.654;2022-07-06T09:46:46;23.80;99.90
26336;DHT22;14047;50.936;4.654;2022-07-06T09:49:11;23.60;99.90
26336;DHT22;14047;50.936;4.654;2022-07-06T09:51:38;23.90;99.90
26336;DHT22;14047;50.936;4.654;2022-07-06T09:54:08;24.20;99.90
26336;DHT22;14047;50.936;4.654;2022-07-06T09:59:10;23.90;99.90
26336;DHT22;14047;50.936;4.654;2022-07-06T10:01:38;24.10;99.90
26336;DHT22;14047;50.936;4.654;2022-07-06T10:04:08;24.20;99.90
26336;DHT22;14047;50.936;4.654;2022-07-06T10:06:34;24.30;99.90
26336;DHT22;14047;50.936;4.654;2022-07-06T10:09:01;24.40;99.90
26336;DHT22;14047;50.936;4.654;2022-07-06T10:11:28;24.30;99.90
26336;DHT22;14047;50.936;4.654;2022-07-06T10:13:56;24.30;99.90
26336;DHT22;14047;50.936;4.654;2022-07-06T10:16:23;24.30;99.90
26336;DHT22;14047;50.936;4.654;2022-07-06T10:18:51;24.40;99.90
26336;DHT22;14047;50.936;4.654;2022-07-06T10:21:19;24.20;99.90
26336;DHT22;14047;50.936;4.654;2022-07-06T10:23:45;23.90;99.90
26336;DHT22;14047;50.936;4.654;2022-07-06T10:26:12;23.30;99.90
26336;DHT22;14047;50.936;4.654;2022-07-06T10:28:38;23.20;99.90
26336;DHT22;14047;50.936;4.654;2022-07-06T10:31:05;23.60;99.90
26336;DHT22;14047;50.936;4.654;2022-07-06T10:33:32;23.90;99.90
26336;DHT22;14047;50.936;4.654;2022-07-06T10:35:58;24.00;99.90
26336;DHT22;14047;50.936;4.654;2022-07-06T10:38:34;23.60;99.90
26336;DHT22;14047;50.936;4.654;2022-07-06T10:41:04;24.20;99.90
26336;DHT22;14047;50.936;4.654;2022-07-06T10:43:36;25.00;99.90
26336;DHT22;14047;50.936;4.654;2022-07-06T10:46:13;25.30;99.90
26336;DHT22;14047;50.936;4.654;2022-07-06T10:48:44;25.50;99.90
26336;DHT22;14047;50.936;4.654;2022-07-06T10:51:29;25.90;99.90
26336;DHT22;14047;50.936;4.654;2022-07-06T10:54:00;26.10;99.90
26336;DHT22;14047;50.936;4.654;2022-07-06T10:56:37;26.00;99.90
26336;DHT22;14047;50.936;4.654;2022-07-06T10:59:12;25.70;99.90
26336;DHT22;14047;50.936;4.654;2022-07-06T11:01:38;25.70;99.90
26336;DHT22;14047;50.936;4.654;2022-07-06T11:04:07;25.00;99.90
26336;DHT22;14047;50.936;4.654;2022-07-06T11:06:36;23.60;99.90
26336;DHT22;14047;50.936;4.654;2022-07-06T11:09:07;23.30;99.90
26336;DHT22;14047;50.936;4.654;2022-07-06T11:14:16;23.70;99.90
26336;DHT22;14047;50.936;4.654;2022-07-06T11:19:15;24.20;99.90
26336;DHT22;14047;50.936;4.654;2022-07-06T11:21:45;24.50;99.90
26336;DHT22;14047;50.936;4.654;2022-07-06T11:24:31;24.80;99.90
26336;DHT22;14047;50.936;4.654;2022-07-06T11:26:59;24.90;99.90
26336;DHT22;14047;50.936;4.654;2022-07-06T11:29:27;24.80;99.90
26336;DHT22;14047;50.936;4.654;2022-07-06T11:31:57;24.20;99.90
26336;DHT22;14047;50.936;4.654;2022-07-06T11:34:30;24.30;99.90
26336;DHT22;14047;50.936;4.654;2022-07-06T11:37:03;24.70;99.90
26336;DHT22;14047;50.936;4.654;2022-07-06T11:39:30;25.00;99.90
26336;DHT22;14047;50.936;4.654;2022-07-06T11:41:57;25.20;99.90
26336;DHT22;14047;50.936;4.654;2022-07-06T11:44:23;25.10;99.90
26336;DHT22;14047;50.936;4.654;2022-07-06T11:46:49;25.10;99.90
26336;DHT22;14047;50.936;4.654;2022-07-06T11:49:15;25.20;99.90
26336;DHT22;14047;50.936;4.654;2022-07-06T11:51:42;25.50;99.90
26336;DHT22;14047;50.936;4.654;2022-07-06T11:54:10;25.90;99.90
26336;DHT22;14047;50.936;4.654;2022-07-06T11:56:36;26.10;99.90
26336;DHT22;14047;50.936;4.654;2022-07-06T11:59:02;26.10;99.90
26336;DHT22;14047;50.936;4.654;2022-07-06T12:01:29;26.10;99.90
26336;DHT22;14047;50.936;4.654;2022-07-06T12:04:01;26.30;99.90
26336;DHT22;14047;50.936;4.654;2022-07-06T12:06:29;26.50;99.90
26336;DHT22;14047;50.936;4.654;2022-07-06T12:08:59;26.50;99.90
26336;DHT22;14047;50.936;4.654;2022-07-06T12:11:27;26.10;99.90
26336;DHT22;14047;50.936;4.654;2022-07-06T12:14:03;25.10;99.90
26336;DHT22;14047;50.936;4.654;2022-07-06T12:16:37;24.00;99.90
26336;DHT22;14047;50.936;4.654;2022-07-06T12:19:04;23.30;99.90
26336;DHT22;14047;50.936;4.654;2022-07-06T12:21:30;23.90;99.90
26336;DHT22;14047;50.936;4.654;2022-07-06T12:23:57;24.40;99.90
26336;DHT22;14047;50.936;4.654;2022-07-06T12:26:24;24.80;99.90
26336;DHT22;14047;50.936;4.654;2022-07-06T12:29:11;24.90;99.90
26336;DHT22;14047;50.936;4.654;2022-07-06T12:31:41;25.00;99.90
26336;DHT22;14047;50.936;4.654;2022-07-06T12:34:28;25.10;99.90
26336;DHT22;14047;50.936;4.654;2022-07-06T12:36:58;25.20;99.90
26336;DHT22;14047;50.936;4.654;2022-07-06T12:39:28;25.30;99.90
26336;DHT22;14047;50.936;4.654;2022-07-06T12:41:58;24.90;99.90
26336;DHT22;14047;50.936;4.654;2022-07-06T12:44:26;24.50;99.90
26336;DHT22;14047;50.936;4.654;2022-07-06T12:47:06;24.30;99.90
26336;DHT22;14047;50.936;4.654;2022-07-06T12:49:32;23.90;99.90
26336;DHT22;14047;50.936;4.654;2022-07-06T12:52:15;23.80;99.90
26336;DHT22;14047;50.936;4.654;2022-07-06T12:54:43;24.20;99.90
26336;DHT22;14047;50.936;4.654;2022-07-06T13:02:24;24.40;99.90
26336;DHT22;14047;50.936;4.654;2022-07-06T13:05:01;24.10;99.90
26336;DHT22;14047;50.936;4.654;2022-07-06T13:07:28;24.10;99.90
26336;DHT22;14047;50.936;4.654;2022-07-06T13:09:54;24.10;99.90
26336;DHT22;14047;50.936;4.654;2022-07-06T13:12:21;24.50;99.90
26336;DHT22;14047;50.936;4.654;2022-07-06T13:14:47;25.10;99.90
26336;DHT22;14047;50.936;4.654;2022-07-06T13:17:13;25.40;99.90
26336;DHT22;14047;50.936;4.654;2022-07-06T13:19:39;25.70;99.90
26336;DHT22;14047;50.936;4.654;2022-07-06T13:22:04;25.80;99.90
26336;DHT22;14047;50.936;4.654;2022-07-06T13:24:30;25.90;99.90
26336;DHT22;14047;50.936;4.654;2022-07-06T13:26:56;25.90;99.90
26336;DHT22;14047;50.936;4.654;2022-07-06T13:29:22;25.90;99.90
26336;DHT22;14047;50.936;4.654;2022-07-06T13:31:48;26.10;99.90
26336;DHT22;14047;50.936;4.654;2022-07-06T13:34:14;25.70;99.90
26336;DHT22;14047;50.936;4.654;2022-07-06T13:36:40;25.80;99.90
26336;DHT22;14047;50.936;4.654;2022-07-06T13:39:06;26.10;99.90
26336;DHT22;14047;50.936;4.654;2022-07-06T13:41:33;26.40;99.90
26336;DHT22;14047;50.936;4.654;2022-07-06T13:44:00;26.50;99.90
26336;DHT22;14047;50.936;4.654;2022-07-06T13:46:30;26.70;99.90
26336;DHT22;14047;50.936;4.654;2022-07-06T13:48:56;26.80;99.90
26336;DHT22;14047;50.936;4.654;2022-07-06T13:51:23;26.90;99.90
26336;DHT22;14047;50.936;4.654;2022-07-06T13:53:50;26.90;99.90
26336;DHT22;14047;50.936;4.654;2022-07-06T13:56:16;27.00;99.90
26336;DHT22;14047;50.936;4.654;2022-07-06T13:58:42;27.30;99.90
26336;DHT22;14047;50.936;4.654;2022-07-06T14:01:07;27.50;99.90
26336;DHT22;14047;50.936;4.654;2022-07-06T14:03:33;27.50;99.90
26336;DHT22;14047;50.936;4.654;2022-07-06T14:06:00;27.30;99.90
26336;DHT22;14047;50.936;4.654;2022-07-06T14:08:27;27.20;99.90
26336;DHT22;14047;50.936;4.654;2022-07-06T14:10:53;27.40;99.90
26336;DHT22;14047;50.936;4.654;2022-07-06T14:13:20;27.30;99.90
26336;DHT22;14047;50.936;4.654;2022-07-06T14:15:46;27.20;99.90
26336;DHT22;14047;50.936;4.654;2022-07-06T14:18:12;26.80;99.90
26336;DHT22;14047;50.936;4.654;2022-07-06T14:20:38;27.20;99.90
26336;DHT22;14047;50.936;4.654;2022-07-06T14:23:03;27.80;99.90
26336;DHT22;14047;50.936;4.654;2022-07-06T14:25:29;28.10;99.90
26336;DHT22;14047;50.936;4.654;2022-07-06T14:27:55;28.00;99.90
26336;DHT22;14047;50.936;4.654;2022-07-06T14:30:20;28.10;99.90
26336;DHT22;14047;50.936;4.654;2022-07-06T14:32:46;27.90;99.90
26336;DHT22;14047;50.936;4.654;2022-07-06T14:35:12;28.30;99.90
26336;DHT22;14047;50.936;4.654;2022-07-06T14:37:37;28.80;99.90
26336;DHT22;14047;50.936;4.654;2022-07-06T14:40:04;28.90;99.90
26336;DHT22;14047;50.936;4.654;2022-07-06T14:42:30;28.70;99.90
26336;DHT22;14047;50.936;4.654;2022-07-06T14:44:55;28.30;99.90
26336;DHT22;14047;50.936;4.654;2022-07-06T14:47:21;28.70;99.90
26336;DHT22;14047;50.936;4.654;2022-07-06T14:49:47;28.90;99.90
26336;DHT22;14047;50.936;4.654;2022-07-06T14:52:12;28.60;99.90
26336;DHT22;14047;50.936;4.654;2022-07-06T14:54:38;28.30;99.90
26336;DHT22;14047;50.936;4.654;2022-07-06T14:57:04;28.20;99.90
26336;DHT22;14047;50.936;4.654;2022-07-06T14:59:33;28.10;99.90
26336;DHT22;14047;50.936;4.654;2022-07-06T15:01:59;27.90;99.90
26336;DHT22;14047;50.936;4.654;2022-07-06T15:04:25;27.80;99.90
26336;DHT22;14047;50.936;4.654;2022-07-06T15:06:51;27.50;99.90
26336;DHT22;14047;50.936;4.654;2022-07-06T15:09:18;27.60;99.90
26336;DHT22;14047;50.936;4.654;2022-07-06T15:11:44;27.90;99.90
26336;DHT22;14047;50.936;4.654;2022-07-06T15:14:11;28.50;99.90
26336;DHT22;14047;50.936;4.654;2022-07-06T15:16:37;28.20;99.90
26336;DHT22;14047;50.936;4.654;2022-07-06T15:19:03;28.40;99.90
26336;DHT22;14047;50.936;4.654;2022-07-06T15:21:29;28.60;99.90
26336;DHT22;14047;50.936;4.654;2022-07-06T15:23:55;27.90;99.90
26336;DHT22;14047;50.936;4.654;2022-07-06T15:26:21;27.90;99.90
26336;DHT22;14047;50.936;4.654;2022-07-06T15:28:47;27.60;99.90
26336;DHT22;14047;50.936;4.654;2022-07-06T15:31:13;27.90;99.90
26336;DHT22;14047;50.936;4.654;2022-07-06T15:33:38;27.80;99.90
26336;DHT22;14047;50.936;4.654;2022-07-06T15:36:04;27.70;99.90
26336;DHT22;14047;50.936;4.654;2022-07-06T15:38:30;27.50;99.90
26336;DHT22;14047;50.936;4.654;2022-07-06T15:41:02;27.40;99.90
26336;DHT22;14047;50.936;4.654;2022-07-06T15:43:31;27.30;99.90
26336;DHT22;14047;50.936;4.654;2022-07-06T15:46:00;27.50;99.90
26336;DHT22;14047;50.936;4.654;2022-07-06T15:48:27;27.60;99.90